Time;durP1;ratioP1;P1;durP2;ratioP2;P2;SDS_P1;SDS_P2;PMS_P1;PMS_P2;Temp;Humidity;BMP_temperature;BMP_pressure;BME280_temperature;BME280_humidity;BME280_pressure;Samples;Min_cycle;Max_cycle;Signal;HPM_P1;HPM_P2
2022/06/12 00:00:27;;;;;;;5.28;1.05;;;;;;;21.18;70.59;100865.00;4988305;28;20046;-90
2022/06/12 00:02:53;;;;;;;3.75;1.50;;;;;;;21.21;70.37;100864.56;4992674;28;20034;-87
2022/06/12 00:05:22;;;;;;;4.05;1.40;;;;;;;21.22;70.43;100867.03;4979941;28;20054;-87
2022/06/12 00:07:47;;;;;;;4.97;1.15;;;;;;;21.15;70.35;100871.66;4987328;28;20035;-85
2022/06/12 00:10:13;;;;;;;3.08;1.15;;;;;;;21.04;70.83;100862.41;4985938;28;20041;-84
2022/06/12 00:12:41;;;;;;;3.65;1.63;;;;;;;20.94;71.15;100867.47;4979597;28;20038;-87
2022/06/12 00:15:08;;;;;;;3.70;1.00;;;;;;;20.82;71.66;100861.16;4991482;28;20057;-88
2022/06/12 00:17:34;;;;;;;7.60;1.00;;;;;;;20.70;72.61;100862.09;4982609;28;20030;-88
2022/06/12 00:20:00;;;;;;;2.70;1.10;;;;;;;20.59;72.98;100867.16;4983893;28;20038;-86
2022/06/12 00:22:26;;;;;;;3.03;1.20;;;;;;;20.60;72.40;100862.59;4985743;28;20400;-87
2022/06/12 00:24:51;;;;;;;4.28;1.17;;;;;;;20.58;72.64;100867.38;4982178;28;20046;-86
2022/06/12 00:27:18;;;;;;;4.95;1.27;;;;;;;20.73;71.93;100867.03;4984410;28;20407;-86
2022/06/12 00:29:47;;;;;;;3.08;1.10;;;;;;;20.71;71.61;100864.56;4985575;28;20038;-87
2022/06/12 00:32:16;;;;;;;1.10;0.90;;;;;;;20.70;71.53;100865.63;4987879;28;20169;-87
2022/06/12 00:34:49;;;;;;;1.75;1.05;;;;;;;20.74;71.54;100864.13;4984812;28;20504;-86
2022/06/12 00:37:20;;;;;;;4.75;1.30;;;;;;;20.60;71.89;100866.09;4984236;28;20094;-89
2022/06/12 00:39:49;;;;;;;1.77;0.90;;;;;;;20.56;72.02;100861.38;4986607;28;20173;-87
2022/06/12 00:42:47;;;;;;;4.57;0.88;;;;;;;20.54;72.20;100858.09;4986007;28;20026;-86
2022/06/12 00:45:38;;;;;;;8.88;1.38;;;;;;;20.44;72.99;100860.44;4997371;28;20049;-85
2022/06/12 00:48:11;;;;;;;3.75;0.98;;;;;;;20.31;73.83;100861.34;4988510;28;20039;-88
2022/06/12 00:51:17;;;;;;;2.55;1.33;;;;;;;20.28;73.84;100864.50;4979502;28;20043;-87
2022/06/12 00:53:54;;;;;;;1.75;0.85;;;;;;;20.21;74.13;100862.84;4978042;28;20042;-89
2022/06/12 00:56:25;;;;;;;1.92;1.00;;;;;;;20.20;74.47;100862.00;4979166;28;20389;-91
2022/06/12 00:58:55;;;;;;;4.55;1.10;;;;;;;20.27;74.14;100870.06;4978139;28;20049;-89
2022/06/12 01:01:42;;;;;;;1.55;1.00;;;;;;;20.23;74.74;100860.75;4979181;28;20095;-88
2022/06/12 01:06:59;;;;;;;3.20;1.55;;;;;;;20.36;74.79;100858.81;4983526;28;20093;-89
2022/06/12 01:09:32;;;;;;;4.53;1.00;;;;;;;20.30;74.75;100866.94;4986669;28;20036;-88
2022/06/12 01:12:04;;;;;;;5.25;1.20;;;;;;;20.13;74.51;100859.34;4986090;28;20105;-88
2022/06/12 01:14:36;;;;;;;4.22;1.13;;;;;;;19.96;75.32;100860.91;4985039;28;20444;-88
2022/06/12 01:17:03;;;;;;;;;;;;;;;20.01;75.61;100863.78;4988060;28;20039;-89
2022/06/12 01:19:51;;;;;;;12.40;1.70;;;;;;;20.04;76.18;100857.97;4987073;28;19917;-88
2022/06/12 01:22:17;;;;;;;3.35;1.50;;;;;;;20.20;75.50;100858.47;4984133;28;20054;-87
2022/06/12 01:24:42;;;;;;;6.93;1.38;;;;;;;20.10;76.36;100861.66;4985835;28;20026;-88
2022/06/12 01:27:08;;;;;;;3.33;1.20;;;;;;;20.06;76.93;100855.88;4985111;28;20046;-87
2022/06/12 01:29:37;;;;;;;8.15;1.63;;;;;;;20.22;76.13;100853.72;4987136;28;20026;-88
2022/06/12 01:32:37;;;;;;;2.15;1.20;;;;;;;20.05;76.67;100859.59;4982893;28;20030;-86
2022/06/12 01:35:12;;;;;;;2.70;1.33;;;;;;;20.06;77.33;100858.56;4967832;28;20043;-88
2022/06/12 01:37:40;;;;;;;3.40;0.90;;;;;;;19.98;77.85;100858.84;4984561;28;20147;-89
2022/06/12 01:40:32;;;;;;;3.50;1.13;;;;;;;19.70;79.85;100861.03;4984567;28;20038;-87
2022/06/12 01:43:39;;;;;;;4.28;1.83;;;;;;;19.53;82.30;100849.09;4983065;28;20389;-88
2022/06/12 01:46:25;;;;;;;6.55;1.38;;;;;;;19.50;84.01;100860.25;4975775;28;20081;-87
2022/06/12 01:49:09;;;;;;;11.80;1.60;;;;;;;19.46;84.32;100854.47;4978617;28;20038;-88
2022/06/12 01:51:58;;;;;;;7.97;1.63;;;;;;;19.38;86.48;100859.25;4987049;28;20037;-87
2022/06/12 01:54:52;;;;;;;6.63;1.52;;;;;;;19.40;87.62;100849.97;4996741;28;20058;-87
2022/06/12 01:57:34;;;;;;;3.45;1.52;;;;;;;19.38;88.82;100845.81;4995313;28;20038;-88
2022/06/12 02:00:13;;;;;;;10.30;1.83;;;;;;;19.34;89.06;100852.63;4995259;28;20042;-88
2022/06/12 02:03:02;;;;;;;3.53;1.30;;;;;;;19.26;90.23;100859.06;4993898;28;20502;-89
2022/06/12 02:05:45;;;;;;;2.47;1.73;;;;;;;19.23;91.02;100858.66;4995712;28;20139;-88
2022/06/12 02:08:29;;;;;;;4.47;1.45;;;;;;;19.19;92.19;100858.25;4995367;28;20121;-88
2022/06/12 02:13:56;;;;;;;7.00;1.40;;;;;;;19.27;91.71;100855.34;4995387;28;20594;-88
2022/06/12 02:16:30;;;;;;;3.83;1.50;;;;;;;19.13;92.81;100858.25;4994537;28;20426;-89
2022/06/12 02:19:00;;;;;;;4.57;1.42;;;;;;;19.14;91.33;100854.53;4994331;28;20420;-89
2022/06/12 02:21:34;;;;;;;5.50;1.40;;;;;;;19.27;90.66;100854.50;4995699;28;20034;-88
2022/06/12 02:24:34;;;;;;;2.42;1.40;;;;;;;19.27;89.89;100849.13;4995353;28;20111;-90
2022/06/12 02:27:09;;;;;;;6.25;1.67;;;;;;;19.21;90.70;100850.81;4920018;29;20125;-86
2022/06/12 02:30:06;;;;;;;4.00;1.40;;;;;;;19.18;91.55;100851.25;4935004;29;20521;-87
2022/06/12 02:32:36;;;;;;;4.82;1.92;;;;;;;19.23;90.92;100864.03;4935485;29;20527;-88
2022/06/12 02:35:10;;;;;;;3.30;1.70;;;;;;;19.17;92.31;100865.69;4933618;29;20493;-87
2022/06/12 02:37:45;;;;;;;2.33;1.35;;;;;;;19.19;92.52;100868.19;4965462;28;20046;-86
2022/06/12 02:40:42;;;;;;;4.47;1.67;;;;;;;19.29;91.72;100877.44;4993631;28;20484;-88
2022/06/12 02:43:15;;;;;;;3.92;1.95;;;;;;;19.36;92.97;100869.38;4995564;28;20546;-87
2022/06/12 02:45:51;;;;;;;7.07;1.73;;;;;;;19.39;91.16;100877.84;4994665;28;20033;-88
2022/06/12 02:48:18;;;;;;;7.30;1.83;;;;;;;19.42;89.96;100879.34;4998521;28;20034;-87
2022/06/12 02:51:15;;;;;;;4.60;1.27;;;;;;;19.53;88.40;100886.72;4995872;28;20035;-88
2022/06/12 02:54:09;;;;;;;7.05;1.25;;;;;;;19.64;85.78;100883.38;4993807;28;20472;-86
2022/06/12 02:56:46;;;;;;;3.97;1.52;;;;;;;19.53;85.58;100892.94;4994316;28;20049;-88
2022/06/12 03:00:03;;;;;;;2.70;1.13;;;;;;;19.50;82.78;100887.97;4993432;28;20135;-88
2022/06/12 03:02:34;;;;;;;4.57;1.02;;;;;;;19.63;80.56;100900.56;4919184;29;20055;-88
2022/06/12 03:05:22;;;;;;;1.85;1.10;;;;;;;19.52;80.53;100899.34;4938028;29;20043;-87
2022/06/12 03:07:55;;;;;;;5.18;0.90;;;;;;;19.67;78.79;100892.88;4937715;29;20043;-87
2022/06/12 03:10:26;;;;;;;2.38;0.93;;;;;;;19.44;80.57;100898.75;4921905;29;20047;-87
2022/06/12 03:12:52;;;;;;;3.65;1.00;;;;;;;19.48;80.31;100883.88;4971631;28;20491;-88
2022/06/12 03:15:31;;;;;;;7.28;0.90;;;;;;;19.47;79.74;100903.72;4997510;28;20034;-88
2022/06/12 03:17:59;;;;;;;6.95;1.20;;;;;;;19.43;79.75;100897.09;4997486;28;20030;-89
2022/06/12 03:20:43;;;;;;;2.08;1.02;;;;;;;19.44;79.10;100898.75;4997661;28;20069;-86
2022/06/12 03:23:32;;;;;;;2.63;1.15;;;;;;;19.53;78.06;100900.16;4996473;28;20038;-88
2022/06/12 03:25:59;;;;;;;2.13;1.08;;;;;;;19.54;77.32;100902.66;4970763;28;20050;-87
2022/06/12 03:28:43;;;;;;;1.63;0.90;;;;;;;19.47;76.91;100909.09;5000998;28;20088;-88
2022/06/12 03:31:20;;;;;;;1.38;0.88;;;;;;;19.43;77.69;100902.47;5009279;28;20027;-85
2022/06/12 03:34:02;;;;;;;1.63;0.93;;;;;;;19.30;79.11;100908.66;5017838;28;20026;-87
2022/06/12 03:36:41;;;;;;;6.80;1.05;;;;;;;19.13;80.06;100906.63;5006721;28;20038;-89
2022/06/12 03:39:14;;;;;;;6.20;1.20;;;;;;;19.32;78.73;100916.53;4997611;28;20068;-90
2022/06/12 03:41:45;;;;;;;1.40;0.93;;;;;;;19.19;79.82;100909.28;4998697;28;20484;-89
2022/06/12 03:44:33;;;;;;;3.50;1.00;;;;;;;19.06;81.52;100917.38;4996671;28;20121;-88
2022/06/12 03:47:10;;;;;;;6.72;0.90;;;;;;;19.10;80.96;100913.25;4997700;28;20037;-87
2022/06/12 03:49:38;;;;;;;2.22;1.00;;;;;;;18.99;81.17;100906.63;4998168;28;20480;-88
2022/06/12 03:52:15;;;;;;;3.30;1.10;;;;;;;19.02;81.58;100911.59;4997260;28;20034;-88
2022/06/12 03:54:45;;;;;;;4.50;1.20;;;;;;;18.91;83.40;100914.91;4997730;28;20073;-88
2022/06/12 04:00:25;;;;;;;2.10;1.10;;;;;;;18.80;84.53;100928.13;4995585;28;20042;-88
2022/06/12 04:03:10;;;;;;;3.65;1.05;;;;;;;18.85;84.89;100931.03;4995165;28;20038;-90
2022/06/12 04:05:44;;;;;;;5.00;1.00;;;;;;;18.79;84.82;100937.22;4994401;28;20505;-87
2022/06/12 04:08:15;;;;;;;5.72;1.30;;;;;;;18.95;84.24;100924.22;4996175;28;20055;-90
2022/06/12 04:10:42;;;;;;;1.35;0.90;;;;;;;19.04;83.88;100941.78;4996419;28;20785;-89
2022/06/12 04:13:12;;;;;;;4.85;1.30;;;;;;;19.10;83.18;100927.50;4996537;28;20046;-89
2022/06/12 04:15:54;;;;;;;2.80;1.10;;;;;;;19.16;82.45;100922.34;4994929;28;20034;-86
2022/06/12 04:18:20;;;;;;;4.93;1.77;;;;;;;19.27;82.21;100919.00;4994413;28;20030;-90
2022/06/12 04:21:03;;;;;;;3.45;1.38;;;;;;;19.29;80.82;100923.13;4994743;28;20550;-89
2022/06/12 04:23:47;;;;;;;6.32;1.23;;;;;;;19.39;80.64;100909.28;4994833;28;20038;-89
2022/06/12 04:26:31;;;;;;;4.90;1.15;;;;;;;19.38;80.41;100915.69;4996262;28;20141;-87
2022/06/12 04:29:18;;;;;;;2.83;1.40;;;;;;;19.38;80.92;100910.31;4996013;28;20435;-88
2022/06/12 04:31:47;;;;;;;5.35;1.58;;;;;;;19.42;81.10;100911.59;4996011;28;20124;-91
2022/06/12 04:34:29;;;;;;;3.75;1.40;;;;;;;19.55;80.83;100927.69;4994845;28;20146;-90
2022/06/12 04:37:11;;;;;;;2.70;1.23;;;;;;;19.55;80.27;100927.69;4996730;28;20472;-87
2022/06/12 04:39:37;;;;;;;3.00;1.40;;;;;;;19.67;80.34;100934.06;4998494;28;20484;-87
2022/06/12 04:42:03;;;;;;;3.47;1.27;;;;;;;19.78;79.85;100922.66;5000236;28;20088;-91
2022/06/12 04:44:29;;;;;;;7.93;1.35;;;;;;;19.72;79.15;100934.22;4996099;28;20037;-89
2022/06/12 04:46:58;;;;;;;3.30;1.17;;;;;;;19.72;79.04;100938.81;4996302;28;20030;-89
2022/06/12 04:49:27;;;;;;;2.95;1.60;;;;;;;19.80;79.57;100941.25;4996069;28;20042;-86
2022/06/12 04:51:55;;;;;;;2.47;1.23;;;;;;;19.86;79.72;100941.22;4994097;28;20031;-89
2022/06/12 04:54:22;;;;;;;4.03;1.10;;;;;;;20.03;79.07;100949.66;4995621;28;20444;-91
2022/06/12 04:56:48;;;;;;;2.55;1.20;;;;;;;19.96;80.37;100943.47;4994784;28;20068;-91
2022/06/12 04:59:16;;;;;;;6.60;1.38;;;;;;;19.94;79.94;100953.63;4995078;28;20061;-90
2022/06/12 05:01:42;;;;;;;11.23;1.10;;;;;;;20.09;79.28;100957.69;4994070;28;20092;-90
2022/06/12 05:04:08;;;;;;;6.20;1.10;;;;;;;20.28;77.55;100960.56;4995798;28;20038;-89
2022/06/12 05:06:35;;;;;;;2.03;1.17;;;;;;;20.30;76.32;100961.16;4993258;28;20046;-89
2022/06/12 05:09:03;;;;;;;4.13;1.00;;;;;;;20.31;75.93;100960.97;4996144;28;20038;-88
2022/06/12 05:11:28;;;;;;;2.88;1.10;;;;;;;20.36;76.27;100963.00;4993297;28;20042;-89
2022/06/12 05:13:54;;;;;;;3.47;1.17;;;;;;;20.44;75.63;100965.44;4994267;28;20092;-88
2022/06/12 05:16:42;;;;;;;7.82;1.25;;;;;;;20.45;76.45;100964.41;4993353;28;20038;-88
2022/06/12 05:19:11;;;;;;;2.47;0.90;;;;;;;20.60;76.09;100967.63;4984534;28;20061;-90
2022/06/12 05:21:37;;;;;;;4.75;1.23;;;;;;;20.74;75.42;100969.19;4994394;28;20026;-87
2022/06/12 05:24:03;;;;;;;3.38;1.00;;;;;;;20.94;73.80;100960.97;4994623;28;20047;-88
2022/06/12 05:26:33;;;;;;;2.67;1.00;;;;;;;21.13;72.86;100965.41;4993110;28;20042;-86
2022/06/12 05:29:01;;;;;;;5.28;1.00;;;;;;;21.20;72.61;100976.13;4992635;28;20042;-87
2022/06/12 05:31:27;;;;;;;5.35;0.90;;;;;;;21.26;72.57;100977.94;4994749;28;20030;-87
2022/06/12 05:33:53;;;;;;;2.65;1.05;;;;;;;21.34;73.35;100972.28;4994051;28;20461;-88
2022/06/12 05:36:21;;;;;;;4.03;1.13;;;;;;;21.55;71.92;100966.44;4992785;28;20030;-88
2022/06/12 05:38:47;;;;;;;2.85;0.90;;;;;;;21.69;70.88;100970.66;4992696;28;20042;-89
2022/06/12 05:41:13;;;;;;;3.88;0.93;;;;;;;21.79;70.92;100972.84;4994063;28;20034;-89
2022/06/12 05:43:40;;;;;;;1.60;1.10;;;;;;;21.94;70.00;100974.16;4993025;28;20038;-88
2022/06/12 05:46:11;;;;;;;2.35;1.00;;;;;;;22.00;69.79;100983.22;5034726;23;20053;-87
2022/06/12 05:48:39;;;;;;;5.45;1.15;;;;;;;22.11;69.73;100990.56;5013321;28;20033;-88
2022/06/12 05:51:05;;;;;;;2.63;0.90;;;;;;;22.26;68.80;100987.47;5013462;28;20125;-88
2022/06/12 05:53:33;;;;;;;2.95;1.30;;;;;;;22.51;68.02;100985.47;5013038;28;20034;-88
2022/06/12 05:56:00;;;;;;;6.03;1.50;;;;;;;22.69;67.48;100993.56;5013589;28;20080;-87
2022/06/12 05:58:28;;;;;;;2.42;1.20;;;;;;;22.77;65.85;100995.94;5014002;28;20475;-91
2022/06/12 06:00:55;;;;;;;4.25;1.35;;;;;;;22.96;65.17;100997.53;4999004;28;20061;-86
2022/06/12 06:03:20;;;;;;;5.45;1.63;;;;;;;23.22;61.13;100998.16;5012982;28;20065;-87
2022/06/12 06:05:48;;;;;;;5.57;1.40;;;;;;;23.36;60.51;100994.19;5013514;28;20503;-85
2022/06/12 06:08:15;;;;;;;3.65;1.67;;;;;;;23.61;60.29;100998.31;5011744;28;20434;-85
2022/06/12 06:10:42;;;;;;;10.40;1.65;;;;;;;23.99;57.48;100995.13;5013086;28;20180;-86
2022/06/12 06:13:08;;;;;;;5.70;1.75;;;;;;;24.35;56.71;100998.56;5013891;28;20033;-87
2022/06/12 06:15:34;;;;;;;9.40;1.83;;;;;;;24.31;56.18;100991.97;5014940;28;20034;-84
2022/06/12 06:18:00;;;;;;;5.70;1.52;;;;;;;24.56;55.71;100995.19;5015056;28;20132;-87
2022/06/12 06:20:31;;;;;;;4.25;1.90;;;;;;;24.91;54.40;101006.72;5021664;28;20471;-84
2022/06/12 06:22:57;;;;;;;5.55;1.65;;;;;;;25.22;53.95;101009.94;5031324;28;20049;-84
2022/06/12 06:25:25;;;;;;;4.57;1.75;;;;;;;25.32;53.80;101002.78;5028847;28;20062;-85
2022/06/12 06:27:51;;;;;;;5.45;1.98;;;;;;;25.72;52.78;101010.72;5015173;28;20034;-87
2022/06/12 06:30:18;;;;;;;3.92;1.60;;;;;;;25.79;52.11;101014.09;5014099;28;20053;-89
2022/06/12 06:32:44;;;;;;;3.75;1.70;;;;;;;26.68;50.00;101014.69;5013894;28;20058;-90
2022/06/12 06:35:10;;;;;;;4.40;1.80;;;;;;;27.02;48.67;101027.03;5013691;28;20034;-86
2022/06/12 06:37:36;;;;;;;14.27;1.60;;;;;;;26.54;50.55;101024.34;5013242;28;20026;-88
2022/06/12 06:40:03;;;;;;;5.10;1.70;;;;;;;27.03;49.11;101028.69;5015785;28;20069;-89
2022/06/12 06:42:29;;;;;;;3.88;1.90;;;;;;;26.97;49.60;101024.28;5017699;28;20041;-89
2022/06/12 06:47:39;;;;;;;6.88;1.70;;;;;;;27.20;49.09;101029.38;5017277;28;20045;-87
2022/06/12 06:50:06;;;;;;;4.57;1.35;;;;;;;28.34;46.16;101030.69;5015530;28;20042;-87
2022/06/12 06:52:32;;;;;;;9.75;1.88;;;;;;;27.35;47.95;101033.28;5016622;28;20038;-86
2022/06/12 06:54:58;;;;;;;4.32;1.65;;;;;;;28.65;44.79;101026.94;5016594;28;20479;-85
2022/06/12 06:57:24;;;;;;;6.22;1.63;;;;;;;27.87;46.19;101026.06;5016598;28;20045;-85
2022/06/12 06:59:50;;;;;;;2.55;1.73;;;;;;;27.40;47.26;101028.72;5017405;28;20034;-87
2022/06/12 07:02:15;;;;;;;7.68;1.70;;;;;;;28.23;45.97;101022.47;5016605;28;20030;-88
2022/06/12 07:04:41;;;;;;;3.22;1.70;;;;;;;28.79;44.40;101030.00;5016725;28;20037;-86
2022/06/12 07:07:08;;;;;;;4.28;1.70;;;;;;;29.42;41.99;101026.78;5017711;28;20037;-87
2022/06/12 07:09:35;;;;;;;3.55;1.70;;;;;;;29.23;42.30;101029.22;5016137;28;20034;-87
2022/06/12 07:12:01;;;;;;;6.78;1.80;;;;;;;29.25;41.97;101028.97;5016227;28;20084;-86
2022/06/12 07:14:28;;;;;;;2.72;1.80;;;;;;;29.03;42.02;101036.59;5016159;28;20038;-86
2022/06/12 07:16:55;;;;;;;5.47;1.90;;;;;;;28.69;42.76;101025.34;5016593;28;20034;-86
2022/06/12 07:19:41;;;;;;;4.00;1.95;;;;;;;29.05;42.61;101029.75;5015939;28;20088;-87
2022/06/12 07:22:07;;;;;;;3.47;1.80;;;;;;;28.57;43.32;101024.75;4940951;29;20079;-86
2022/06/12 07:24:32;;;;;;;6.38;1.80;;;;;;;30.13;39.76;101030.19;4955949;29;20568;-87
2022/06/12 07:26:58;;;;;;;6.20;2.28;;;;;;;29.74;40.73;101024.56;4955946;29;20028;-87
2022/06/12 07:29:24;;;;;;;6.03;1.52;;;;;;;29.44;41.24;101021.88;4955771;29;20480;-88
2022/06/12 07:31:50;;;;;;;6.05;1.67;;;;;;;28.92;41.93;101026.75;4955349;29;20039;-87
2022/06/12 07:34:16;;;;;;;4.97;1.50;;;;;;;30.09;39.74;101023.66;4955311;29;20378;-89
2022/06/12 07:36:45;;;;;;;11.73;2.03;;;;;;;29.91;40.22;101021.53;5000953;28;20407;-87
2022/06/12 07:39:16;;;;;;;6.95;1.55;;;;;;;29.63;41.62;101016.66;5014185;28;20041;-87
2022/06/12 07:41:43;;;;;;;12.68;1.85;;;;;;;30.43;40.07;101025.72;5016241;28;20057;-87
2022/06/12 07:44:08;;;;;;;5.00;1.67;;;;;;;30.12;39.87;101023.09;5014887;28;20060;-86
2022/06/12 07:46:34;;;;;;;9.20;2.17;;;;;;;28.84;42.09;101028.09;5015518;28;20046;-86
2022/06/12 07:48:59;;;;;;;10.40;1.70;;;;;;;29.07;41.54;101022.09;4997435;28;20050;-87
2022/06/12 07:51:25;;;;;;;6.45;1.95;;;;;;;29.32;41.75;101023.25;5015413;28;20033;-88
2022/06/12 07:53:52;;;;;;;7.97;1.88;;;;;;;29.17;41.87;101022.13;5015490;28;20030;-87
2022/06/12 07:56:19;;;;;;;7.68;1.90;;;;;;;28.90;43.60;101021.53;5015405;28;20030;-88
2022/06/12 07:58:45;;;;;;;11.07;1.65;;;;;;;30.06;42.34;101032.41;5014389;28;20049;-87
2022/06/12 08:01:15;;;;;;;9.95;2.05;;;;;;;30.17;40.50;101020.34;5014257;28;20029;-88
2022/06/12 08:03:40;;;;;;;4.38;1.83;;;;;;;30.82;38.39;101029.34;5014764;28;20041;-91
2022/06/12 08:06:06;;;;;;;6.07;1.58;;;;;;;31.39;38.08;101025.09;5015109;28;20856;-87
2022/06/12 08:08:32;;;;;;;13.48;1.40;;;;;;;30.90;38.28;101023.25;5014289;28;20030;-86
2022/06/12 08:10:58;;;;;;;3.22;1.55;;;;;;;30.55;39.22;101020.75;5013917;28;20088;-88
2022/06/12 08:13:24;;;;;;;6.80;1.60;;;;;;;30.65;38.44;101020.69;5013626;28;20041;-89
2022/06/12 08:15:51;;;;;;;5.45;1.75;;;;;;;31.12;37.20;101025.59;5015203;28;20034;-89
2022/06/12 08:18:19;;;;;;;6.90;1.60;;;;;;;30.33;37.94;101017.56;5014155;28;20513;-85
2022/06/12 08:20:54;;;;;;;7.75;4.75;;;;;;;31.30;35.95;101024.06;5015195;28;20117;-86
2022/06/12 08:23:33;;;;;;;6.88;1.60;;;;;;;31.31;36.11;101018.28;5012921;28;20045;-85
2022/06/12 08:26:24;;;;;;;2.25;1.13;;;;;;;31.30;33.51;101018.56;5009387;28;20029;-83
2022/06/12 08:28:53;;;;;;;3.55;1.10;;;;;;;31.51;32.92;101029.09;5014457;28;20074;-84
2022/06/12 08:31:23;;;;;;;2.63;1.10;;;;;;;31.32;34.40;101024.59;5010330;28;20041;-87
2022/06/12 08:33:52;;;;;;;7.60;2.15;;;;;;;31.40;34.21;101013.00;5014631;28;20026;-85
2022/06/12 08:36:20;;;;;;;5.60;1.35;;;;;;;30.89;36.03;101009.84;5014014;28;20038;-88
2022/06/12 08:38:47;;;;;;;3.83;1.00;;;;;;;29.94;36.08;101007.31;5014707;28;20490;-86
2022/06/12 08:41:35;;;;;;;4.65;1.10;;;;;;;30.23;36.22;101005.53;5015270;28;20026;-85
2022/06/12 08:44:26;;;;;;;4.13;1.00;;;;;;;29.89;36.95;101012.81;5016324;28;20073;-85
2022/06/12 08:47:11;;;;;;;2.90;1.33;;;;;;;29.75;38.31;101006.25;5013445;28;20525;-85
2022/06/12 08:50:08;;;;;;;9.82;1.20;;;;;;;30.73;35.92;101006.38;5021731;28;20486;-85
2022/06/12 08:52:44;;;;;;;6.60;1.55;;;;;;;30.69;36.65;101008.88;5033506;28;20043;-86
2022/06/12 08:55:16;;;;;;;5.00;1.70;;;;;;;31.12;35.42;101009.94;5030613;28;20076;-87
2022/06/12 08:58:18;;;;;;;1.63;1.05;;;;;;;30.87;36.01;101007.38;5013994;28;20045;-83
2022/06/12 09:00:44;;;;;;;;;;;;;;;30.97;35.53;101009.25;5000794;28;20050;-88
2022/06/12 09:03:17;;;;;;;8.98;1.30;;;;;;;31.12;35.05;101015.44;4998978;28;19957;-87
2022/06/12 09:06:01;;;;;;;7.50;1.30;;;;;;;31.59;32.67;101014.75;5014580;28;20040;-85
2022/06/12 09:08:37;;;;;;;2.75;1.40;;;;;;;31.59;32.53;101006.53;5013458;28;20400;-84
2022/06/12 09:11:40;;;;;;;4.03;1.13;;;;;;;31.65;33.29;101001.84;5016649;28;20040;-87
2022/06/12 09:14:37;;;;;;;3.72;1.48;;;;;;;31.53;34.00;101004.97;5025220;28;20049;-83
2022/06/12 09:17:25;;;;;;;2.22;1.30;;;;;;;31.25;34.17;100998.31;5031126;28;20061;-86
2022/06/12 09:20:05;;;;;;;7.45;1.13;;;;;;;30.92;35.61;100999.16;5006270;28;20038;-90
2022/06/12 09:22:39;;;;;;;4.32;1.60;;;;;;;30.99;35.73;100996.91;4993829;28;20081;-90
2022/06/12 09:25:19;;;;;;;5.13;1.23;;;;;;;31.09;35.93;100999.56;4998321;28;20089;-90
2022/06/12 09:28:09;;;;;;;3.45;1.38;;;;;;;31.13;36.94;100988.88;4999586;28;20117;-90
2022/06/12 09:31:14;;;;;;;9.60;1.27;;;;;;;31.84;34.94;100997.22;4986353;28;20507;-89
2022/06/12 09:34:04;;;;;;;5.07;1.15;;;;;;;31.73;33.86;101003.94;5017805;28;20125;-93
2022/06/12 09:38:18;;;;;;;3.13;1.02;;;;;;;31.21;35.07;101008.25;5007619;28;20046;-90
2022/06/12 09:40:07;;;;;;;4.28;1.00;;;;;;;31.02;34.30;100999.09;5018939;28;20046;-94
2022/06/12 09:45:57;;;;;;;3.67;1.30;;;;;;;31.31;33.75;101001.03;4938469;26;20049;-92
2022/06/12 09:48:31;;;;;;;3.15;1.15;;;;;;;30.73;36.02;100989.97;5064648;23;20487;-92
2022/06/12 09:51:31;;;;;;;5.68;1.45;;;;;;;30.87;36.34;100990.13;4999883;28;20043;-89
2022/06/12 09:56:57;;;;;;;3.20;1.25;;;;;;;30.47;35.82;100975.63;3060835;23;20045;-91
2022/06/12 09:59:59;;;;;;;4.88;1.00;;;;;;;30.17;36.19;100973.84;5004086;28;20558;-88
2022/06/12 10:03:05;;;;;;;2.27;0.90;;;;;;;30.60;36.58;100980.47;5016847;28;20131;-90
2022/06/12 10:05:59;;;;;;;4.00;0.95;;;;;;;30.73;35.44;100973.53;5003984;28;20038;-92
2022/06/12 10:08:31;;;;;;;5.40;1.15;;;;;;;31.14;34.64;100963.94;5009171;28;20038;-88
2022/06/12 10:11:05;;;;;;;4.45;1.10;;;;;;;31.34;34.56;100967.59;5005505;28;20157;-92
2022/06/12 10:13:49;;;;;;;6.68;1.30;;;;;;;31.54;34.14;100967.41;5021116;28;20029;-89
2022/06/12 10:16:24;;;;;;;3.75;1.10;;;;;;;31.15;33.52;100960.09;5028629;28;20054;-92
2022/06/12 10:19:09;;;;;;;12.32;1.30;;;;;;;31.40;35.07;100959.03;5027138;28;20041;-92
2022/06/12 10:21:46;;;;;;;4.28;1.10;;;;;;;31.62;34.33;100947.59;5023561;28;20417;-91
2022/06/12 10:24:12;;;;;;;4.07;1.10;;;;;;;31.89;33.88;100941.50;4987821;28;20030;-89
2022/06/12 10:26:51;;;;;;;4.25;1.20;;;;;;;31.53;33.99;100943.84;5017377;28;20045;-92
2022/06/12 10:29:20;;;;;;;9.40;1.30;;;;;;;31.60;34.30;100938.84;5011107;28;20043;-92
2022/06/12 10:31:54;;;;;;;1.15;0.80;;;;;;;32.00;33.97;100932.03;5031272;28;20068;-90
2022/06/12 10:34:44;;;;;;;4.88;1.02;;;;;;;31.95;32.18;100932.13;5019550;28;20035;-91
2022/06/12 10:37:28;;;;;;;5.93;1.27;;;;;;;32.00;33.42;100924.63;5026500;28;20044;-93
2022/06/12 10:40:01;;;;;;;3.25;1.17;;;;;;;32.30;31.50;100922.59;4987408;28;20160;-86
2022/06/12 10:42:37;;;;;;;7.18;1.02;;;;;;;32.82;31.35;100922.34;5008746;28;20042;-87
2022/06/12 10:45:03;;;;;;;5.55;1.60;;;;;;;32.31;31.49;100924.25;4997081;28;20088;-86
2022/06/12 10:47:45;;;;;;;3.35;1.10;;;;;;;32.06;31.92;100923.47;5012568;28;20038;-87
2022/06/12 10:50:15;;;;;;;5.97;1.30;;;;;;;32.56;31.91;100918.34;5014808;28;20372;-88
2022/06/12 10:53:00;;;;;;;4.63;1.20;;;;;;;32.89;30.56;100917.28;5005600;28;20347;-87
2022/06/12 10:56:00;;;;;;;2.15;1.00;;;;;;;32.68;31.24;100913.28;5022551;28;20382;-89
2022/06/12 10:58:31;;;;;;;5.22;1.33;;;;;;;32.69;31.15;100912.13;4996028;28;20034;-88
2022/06/12 11:01:03;;;;;;;3.42;0.75;;;;;;;32.91;31.04;100911.50;5006453;28;20041;-88
2022/06/12 11:03:53;;;;;;;5.07;1.13;;;;;;;32.86;29.50;100909.66;5006897;28;20030;-85
2022/06/12 11:06:26;;;;;;;4.63;1.05;;;;;;;32.22;29.82;100907.63;5002741;28;20034;-88
2022/06/12 11:09:22;;;;;;;1.25;0.90;;;;;;;32.25;29.51;100896.88;5001171;28;20042;-91
2022/06/12 11:12:01;;;;;;;7.07;1.40;;;;;;;32.62;29.13;100900.72;5017519;28;20387;-90
2022/06/12 11:14:43;;;;;;;3.67;1.05;;;;;;;33.32;29.93;100884.13;4998352;28;20500;-88
2022/06/12 11:17:26;;;;;;;1.95;0.88;;;;;;;33.63;27.63;100894.25;5011262;28;20038;-92
2022/06/12 11:19:54;;;;;;;5.57;0.80;;;;;;;33.96;28.15;100883.09;5002226;28;20034;-88
2022/06/12 11:22:29;;;;;;;16.60;1.50;;;;;;;34.13;27.46;100886.84;4997685;28;20042;-85
2022/06/12 11:25:25;;;;;;;4.43;0.85;;;;;;;33.13;27.89;100878.72;5004576;28;20037;-86
2022/06/12 11:28:14;;;;;;;3.10;0.80;;;;;;;32.65;28.61;100878.16;5014643;28;20069;-91
2022/06/12 11:30:52;;;;;;;4.35;1.17;;;;;;;32.61;29.50;100874.41;5017628;28;20068;-89
2022/06/12 11:33:39;;;;;;;4.00;1.25;;;;;;;32.20;31.56;100863.22;5011414;28;20801;-87
2022/06/12 11:36:30;;;;;;;2.45;1.30;;;;;;;31.88;30.79;100863.13;5021709;28;20025;-89
2022/06/12 11:39:09;;;;;;;5.82;1.58;;;;;;;31.89;31.02;100853.75;4990560;28;20070;-88
2022/06/12 11:41:46;;;;;;;1.10;0.82;;;;;;;32.07;30.24;100851.06;5015838;28;20108;-89
2022/06/12 11:44:33;;;;;;;7.75;1.35;;;;;;;32.06;29.87;100852.19;5022701;28;20058;-89
2022/06/12 11:47:40;;;;;;;2.95;1.50;;;;;;;31.87;30.26;100851.34;5012098;28;20475;-87
2022/06/12 11:50:06;;;;;;;4.78;1.15;;;;;;;31.41;30.36;100845.59;4961713;28;20388;-91
2022/06/12 11:52:59;;;;;;;4.47;1.10;;;;;;;31.22;30.99;100848.28;4997976;28;20105;-88
2022/06/12 11:55:54;;;;;;;6.53;1.70;;;;;;;31.39;31.36;100836.06;5011416;28;20052;-90
2022/06/12 11:58:28;;;;;;;7.45;1.42;;;;;;;31.50;32.28;100834.78;5012717;28;20034;-91
2022/06/12 12:01:12;;;;;;;5.47;1.30;;;;;;;31.32;31.50;100843.81;5010145;28;20045;-88
2022/06/12 12:04:06;;;;;;;5.22;1.40;;;;;;;31.34;31.13;100830.63;5005249;28;20088;-92
2022/06/12 12:06:56;;;;;;;10.48;1.88;;;;;;;31.30;33.97;100832.31;5025523;23;20042;-89
2022/06/12 12:09:33;;;;;;;4.57;0.88;;;;;;;31.13;31.49;100836.34;5001784;28;20026;-88
2022/06/12 12:12:02;;;;;;;3.70;1.30;;;;;;;30.98;29.91;100830.22;5005585;28;20021;-89
2022/06/12 12:14:33;;;;;;;2.38;0.95;;;;;;;31.05;30.46;100830.69;5003576;28;20053;-87
2022/06/12 12:17:22;;;;;;;5.68;0.80;;;;;;;30.90;30.94;100823.41;4986076;28;20484;-87
2022/06/12 12:19:59;;;;;;;2.70;0.90;;;;;;;31.09;31.26;100815.31;4979162;28;20035;-89